GCLA Airport Information

Runway Information
Runway 01 Length 7218 ft width 148 ft
Elevation 103 ft Threshold 0 ft Heading 359
Runway 19 Length 7218 ft Width 148 ft
Elevation 65 ft Threshold 0 ft Heading 179
Airport Frequencies
Type APP Name CANARIAS A Frequency 126.1 MHZ
Type ATIS Name INFO Frequency 118.6 MHZ
Type GND Name GND Frequency 121.8 MHZ
Type TWR Name TWR Frequency 118.9 MHZ
Airport Navaids
Type DME Name La Palma Frequency 112400 KHZ
Type NDB Name La Palma Frequency 389 KHZ
Airport Weather Information & NOTAM
ADDS - METARS form results

(0151 UTC 25 March 2019)
Data provider http://aviationweather.gov/metar/data/
 
METAR text: GCLA 250130Z AUTO 24004KT 9999 OVC096 17/10 Q1010
Conditions at: GCLA (LA PALMA AIRPORT, ES) observed 0130 UTC 25 March 2019
Temperature: 17.0°C (63°F)
Dewpoint: 10.0°C (50°F) [RH = 63%]
Pressure (altimeter): 29.82 inches Hg (1010.0 mb)
Winds: from the WSW (240 degrees) at 5 MPH (4 knots; 2.1 m/s)
Visibility: 6 or more miles (10+ km)
Ceiling: 9600 feet AGL
Clouds: overcast cloud deck at 9600 feet AGL
Weather: no significant weather observed at this time

METAR text: GCLA 250100Z AUTO 25005KT 9999 OVC090 17/10 Q1010
Conditions at: GCLA (LA PALMA AIRPORT, ES) observed 0100 UTC 25 March 2019
Temperature: 17.0°C (63°F)
Dewpoint: 10.0°C (50°F) [RH = 63%]
Pressure (altimeter): 29.82 inches Hg (1010.0 mb)
Winds: from the WSW (250 degrees) at 6 MPH (5 knots; 2.6 m/s)
Visibility: 6 or more miles (10+ km)
Ceiling: 9000 feet AGL
Clouds: overcast cloud deck at 9000 feet AGL
Weather: no significant weather observed at this time

Forecast for: GCLA (LA PALMA AIRPORT, ES)
Text: TAF GCLA 242000Z 2421/2521 VRB05KT 9999 BKN040 TX21/2514Z TN16/2506Z
Forecast period: 2100 UTC 24 March 2019 to 2100 UTC 25 March 2019
Forecast type: FROM: standard forecast or significant change
Winds: variable direction winds at 6 MPH (5 knots; 2.6 m/s)
Visibility: 6 or more miles 10+ km)
Ceiling: 4000 feet AGL
Clouds: broken clouds at 4000 feet AGL
Weather: no significant weather forecast for this period
Text: PROB30
Forecast period: 2100 UTC 24 March 2019 to 0900 UTC 25 March 2019
Forecast type: TEMPORARY: The following changes expected for less than half the time period
Visibility: missing
Ceiling: unknown
Clouds: missing
Weather: RA  (moderate rain)
Text: TEMPO 2421/2509 RA
Forecast period: 0900 to 2100 UTC 25 March 2019
Forecast type: TEMPORARY: The following changes expected for less than half the time period
Visibility: 2.80 miles (4.51 km)
Ceiling: at least 12,000 feet AGL
Clouds: scattered clouds at 3000 feet AGL
Weather: SHRA  (rain showers)